createdAt,value
2019-04-26T00:00:14.204Z,18.53
2019-04-26T00:02:55.848Z,19.63
2019-04-26T00:05:34.305Z,23.83
2019-04-26T00:07:55.541Z,21.00
2019-04-26T00:10:43.719Z,20.83
2019-04-26T00:13:34.514Z,17.23
2019-04-26T00:16:41.128Z,22.93
2019-04-26T00:19:09.788Z,20.57
2019-04-26T00:21:39.758Z,18.93
2019-04-26T00:24:08.398Z,24.67
2019-04-26T00:26:36.828Z,18.60
2019-04-26T00:29:05.258Z,16.30
2019-04-26T00:31:33.910Z,20.87
2019-04-26T00:34:02.614Z,17.97
2019-04-26T00:36:31.141Z,18.87
2019-04-26T00:38:59.705Z,17.97
2019-04-26T00:41:28.894Z,14.70
2019-04-26T00:43:58.106Z,19.87
2019-04-26T00:46:29.056Z,21.00
2019-04-26T00:49:02.560Z,14.47
2019-04-26T00:51:32.781Z,15.43
2019-04-26T00:54:01.887Z,19.87
2019-04-26T00:56:31.211Z,17.83
2019-04-26T00:59:00.528Z,16.43
2019-04-26T01:01:31.363Z,21.53
2019-04-26T01:03:59.996Z,20.03
2019-04-26T01:06:30.866Z,18.43
2019-04-26T01:08:59.546Z,18.77
2019-04-26T01:11:28.343Z,22.53
2019-04-26T01:13:56.830Z,15.70
2019-04-26T01:16:26.388Z,21.57
2019-04-26T01:18:56.863Z,17.43
2019-04-26T01:21:33.260Z,18.03
2019-04-26T01:24:04.331Z,16.27
2019-04-26T01:26:35.426Z,19.17
2019-04-26T01:29:10.216Z,28.37
2019-04-26T01:31:59.570Z,23.70
2019-04-26T01:34:29.649Z,20.27
2019-04-26T01:37:01.073Z,21.37
2019-04-26T01:39:30.503Z,20.07
2019-04-26T01:42:24.979Z,22.33
2019-04-26T01:45:06.541Z,14.03
2019-04-26T01:47:35.511Z,18.77
2019-04-26T01:50:05.393Z,21.27
2019-04-26T01:52:33.717Z,18.10
2019-04-26T01:55:03.045Z,19.80
2019-04-26T01:57:32.153Z,17.53
2019-04-26T02:00:12.121Z,18.03
2019-04-26T02:02:58.419Z,17.20
2019-04-26T02:05:27.914Z,20.97
2019-04-26T02:07:57.356Z,17.50
2019-04-26T02:10:26.687Z,17.37
2019-04-26T02:12:56.738Z,19.77
2019-04-26T02:15:31.231Z,18.00
2019-04-26T02:18:00.591Z,28.03
2019-04-26T02:21:02.313Z,19.27
2019-04-26T02:23:39.448Z,18.10
2019-04-26T02:26:26.892Z,20.00
2019-04-26T02:28:55.411Z,17.77
2019-04-26T02:31:26.779Z,17.80
2019-04-26T02:33:55.801Z,16.83
2019-04-26T02:36:27.503Z,16.00
2019-04-26T02:39:00.944Z,15.90
2019-04-26T02:41:31.616Z,20.73
2019-04-26T02:44:06.515Z,17.80
2019-04-26T02:46:47.561Z,15.93
2019-04-26T02:49:29.293Z,21.60
2019-04-26T02:52:24.754Z,16.27
2019-04-26T02:55:07.625Z,19.67
2019-04-26T02:57:54.869Z,14.80
2019-04-26T03:00:24.486Z,16.63
2019-04-26T03:03:01.166Z,16.07
2019-04-26T03:05:35.751Z,16.17
2019-04-26T03:08:26.349Z,22.40
2019-04-26T03:11:10.004Z,22.73
2019-04-26T03:14:02.874Z,20.07
2019-04-26T03:17:02.920Z,22.83
2019-04-26T03:19:59.530Z,18.07
2019-04-26T03:23:45.540Z,16.10
2019-04-26T03:26:37.457Z,22.33
2019-04-26T03:29:41.956Z,17.67
2019-04-26T03:33:07.235Z,21.67
2019-04-26T03:36:16.012Z,17.60
2019-04-26T03:39:19.454Z,14.07
2019-04-26T03:42:54.836Z,24.47
2019-04-26T03:45:55.632Z,16.83
2019-04-26T03:49:07.473Z,18.47
2019-04-26T03:52:37.936Z,12.90
2019-04-26T03:55:47.798Z,14.47
2019-04-26T03:58:25.855Z,19.83
2019-04-26T04:01:00.359Z,12.90
2019-04-26T04:04:07.939Z,19.33
2019-04-26T04:07:03.380Z,21.83
2019-04-26T04:09:25.624Z,19.87
2019-04-26T04:12:11.719Z,19.33
2019-04-26T04:15:08.307Z,21.10
2019-04-26T04:17:51.706Z,19.30
2019-04-26T04:21:32.668Z,19.53
2019-04-26T04:24:11.041Z,13.67
2019-04-26T04:27:27.061Z,20.63
2019-04-26T04:30:18.978Z,24.90
2019-04-26T04:33:52.600Z,19.67
2019-04-26T04:36:32.722Z,16.47
2019-04-26T04:39:38.561Z,16.90
2019-04-26T04:42:52.298Z,17.23
2019-04-26T04:46:01.179Z,19.80
2019-04-26T04:49:22.142Z,16.17
2019-04-26T04:52:31.481Z,18.87
2019-04-26T04:55:20.066Z,21.73
2019-04-26T04:58:14.064Z,17.33
2019-04-26T05:02:05.188Z,20.47
2019-04-26T05:05:06.599Z,23.73
2019-04-26T05:08:06.631Z,16.57
2019-04-26T05:10:47.640Z,22.33
2019-04-26T05:13:59.179Z,19.20
2019-04-26T05:17:08.966Z,16.07
2019-04-26T05:20:46.937Z,19.40
2019-04-26T05:24:04.732Z,17.20
2019-04-26T05:27:57.186Z,18.63
2019-04-26T05:31:17.407Z,19.60
2019-04-26T05:34:38.014Z,20.40
2019-04-26T05:38:17.801Z,15.80
2019-04-26T05:41:31.926Z,15.20
2019-04-26T05:44:38.018Z,23.97
2019-04-26T05:48:03.248Z,15.90
2019-04-26T05:51:30.167Z,15.70
2019-04-26T05:55:04.181Z,18.33
2019-04-26T05:58:16.948Z,19.87
2019-04-26T06:01:54.801Z,16.73
2019-04-26T06:05:24.296Z,20.60
2019-04-26T06:08:46.359Z,24.90
2019-04-26T06:11:30.442Z,22.17
2019-04-26T06:14:39.681Z,18.93
2019-04-26T06:17:49.155Z,21.60
2019-04-26T06:21:16.600Z,25.47
2019-04-26T06:24:37.061Z,18.80
2019-04-26T06:27:47.314Z,26.87
2019-04-26T06:30:24.124Z,24.07
2019-04-26T06:33:26.920Z,29.20
2019-04-26T06:36:01.764Z,37.70
2019-04-26T06:39:24.444Z,30.43
2019-04-26T06:42:48.230Z,35.13
2019-04-26T06:46:29.502Z,41.93
2019-04-26T06:49:43.194Z,34.33
2019-04-26T06:52:18.131Z,35.77
2019-04-26T06:55:17.429Z,41.50
2019-04-26T06:58:57.890Z,52.67
2019-04-26T07:02:09.928Z,35.00
2019-04-26T07:05:15.493Z,40.43
2019-04-26T07:09:00.596Z,39.83
2019-04-26T07:12:41.319Z,43.53
2019-04-26T07:16:19.731Z,50.73
2019-04-26T07:19:55.111Z,34.83
2019-04-26T07:23:18.582Z,43.20
2019-04-26T07:27:13.170Z,51.23
2019-04-26T07:31:13.518Z,33.50
2019-04-26T07:34:31.801Z,45.07
2019-04-26T07:38:11.462Z,41.43
2019-04-26T07:41:23.870Z,48.97
2019-04-26T07:44:37.640Z,41.47
2019-04-26T07:48:18.017Z,36.27
2019-04-26T07:51:47.890Z,43.77
2019-04-26T07:55:28.468Z,37.80
2019-04-26T07:58:59.026Z,45.47
2019-04-26T08:02:06.667Z,36.53
2019-04-26T08:04:43.403Z,39.43
2019-04-26T08:07:21.814Z,41.23
2019-04-26T08:10:17.034Z,42.40
2019-04-26T08:12:56.819Z,37.80
2019-04-26T08:15:45.611Z,32.13
2019-04-26T08:18:32.976Z,21.90
2019-04-26T08:21:18.439Z,24.57
2019-04-26T08:24:18.999Z,25.00
2019-04-26T08:27:23.121Z,19.63
2019-04-26T08:29:56.706Z,14.80
2019-04-26T08:32:33.240Z,26.13
2019-04-26T08:35:28.556Z,18.20
2019-04-26T08:38:07.946Z,14.43
2019-04-26T08:40:36.920Z,14.67
2019-04-26T08:43:30.798Z,16.60
2019-04-26T08:46:24.368Z,17.83
2019-04-26T08:49:06.432Z,19.40
2019-04-26T08:51:40.787Z,13.83
2019-04-26T08:54:21.368Z,11.93
2019-04-26T08:57:04.018Z,19.97
2019-04-26T08:59:46.167Z,16.23
2019-04-26T09:02:31.648Z,17.27
2019-04-26T09:05:20.716Z,14.33
2019-04-26T09:07:57.592Z,11.50
2019-04-26T09:10:30.919Z,11.33
2019-04-26T09:13:03.143Z,7.83
2019-04-26T09:16:10.068Z,14.50
2019-04-26T09:18:43.676Z,14.77
2019-04-26T09:21:09.616Z,15.27
2019-04-26T09:23:56.395Z,14.10
2019-04-26T09:26:34.816Z,15.33
2019-04-26T09:29:21.735Z,16.47
2019-04-26T09:31:54.457Z,14.20
2019-04-26T09:34:23.079Z,13.90
2019-04-26T09:36:51.711Z,15.77
2019-04-26T09:39:20.173Z,16.47
2019-04-26T09:41:48.774Z,15.57
2019-04-26T09:44:32.611Z,16.77
2019-04-26T09:47:32.548Z,16.00
2019-04-26T09:50:20.896Z,18.17
2019-04-26T09:52:50.627Z,14.50
2019-04-26T09:55:19.131Z,20.07
2019-04-26T09:57:48.714Z,16.97
2019-04-26T10:00:23.716Z,17.90
2019-04-26T10:02:52.223Z,16.63
2019-04-26T10:05:22.175Z,14.67
2019-04-26T10:07:51.528Z,16.63
2019-04-26T10:10:22.950Z,11.27
2019-04-26T10:13:15.976Z,16.80
2019-04-26T10:16:02.912Z,10.83
2019-04-26T10:18:33.588Z,10.60
2019-04-26T10:21:02.079Z,12.37
2019-04-26T10:23:31.629Z,10.67
2019-04-26T10:26:01.138Z,9.30
2019-04-26T10:28:29.704Z,13.50
2019-04-26T10:30:58.591Z,15.77
2019-04-26T10:33:27.281Z,14.97
2019-04-26T10:35:56.804Z,11.37
2019-04-26T10:38:26.369Z,12.43
2019-04-26T10:40:54.830Z,10.57
2019-04-26T10:43:26.097Z,11.73
2019-04-26T10:45:55.062Z,12.10
2019-04-26T10:48:23.726Z,14.13
2019-04-26T10:50:52.542Z,13.23
2019-04-26T10:53:38.483Z,10.30
2019-04-26T10:56:35.786Z,14.33
2019-04-26T10:59:24.213Z,11.97
2019-04-26T11:01:52.793Z,12.37
2019-04-26T11:04:21.426Z,17.67
2019-04-26T11:06:50.060Z,14.97
2019-04-26T11:09:18.850Z,12.90
2019-04-26T11:11:47.471Z,12.17
2019-04-26T11:14:18.453Z,10.90
2019-04-26T11:16:47.388Z,9.27
2019-04-26T11:19:17.475Z,11.27
2019-04-26T11:21:46.646Z,10.37
2019-04-26T11:24:19.547Z,8.17
2019-04-26T11:26:47.132Z,7.53
2019-04-26T11:29:15.505Z,7.63
2019-04-26T11:31:44.289Z,4.10
2019-04-26T11:34:12.946Z,4.93
2019-04-26T11:36:42.961Z,5.27
2019-04-26T11:39:14.235Z,5.97
2019-04-26T11:41:44.920Z,5.50
2019-04-26T11:44:14.677Z,5.73
2019-04-26T11:46:45.758Z,8.53
2019-04-26T11:49:14.611Z,6.60
2019-04-26T11:51:43.170Z,8.13
2019-04-26T11:54:12.132Z,5.43
2019-04-26T11:56:41.084Z,6.93
2019-04-26T11:59:11.007Z,7.47
2019-04-26T12:01:40.491Z,5.63
2019-04-26T12:04:27.181Z,6.00
2019-04-26T12:07:08.404Z,3.73
2019-04-26T12:09:40.935Z,3.23
2019-04-26T12:12:13.083Z,4.13
2019-04-26T12:14:41.942Z,5.53
2019-04-26T12:17:14.269Z,4.80
2019-04-26T12:19:44.413Z,3.73
2019-04-26T12:22:13.684Z,3.40
2019-04-26T12:24:42.152Z,4.73
2019-04-26T12:27:10.919Z,5.73
2019-04-26T12:29:44.250Z,5.87
2019-04-26T12:32:13.407Z,5.70
2019-04-26T12:34:43.031Z,4.87
2019-04-26T12:37:19.804Z,2.83
2019-04-26T12:39:44.131Z,4.50
2019-04-26T12:42:13.851Z,3.27
2019-04-26T12:45:03.676Z,5.67
2019-04-26T12:47:42.924Z,3.57
2019-04-26T12:50:12.093Z,3.23
2019-04-26T12:52:41.859Z,6.37
2019-04-26T12:55:13.848Z,4.60
2019-04-26T12:57:44.984Z,4.80
2019-04-26T13:00:16.676Z,3.37
2019-04-26T13:02:45.144Z,5.30
2019-04-26T13:05:14.603Z,3.17
2019-04-26T13:07:50.376Z,4.60
2019-04-26T13:11:52.859Z,5.03
2019-04-26T13:15:13.246Z,3.60
2019-04-26T13:18:28.446Z,17.50
2019-04-26T13:21:22.999Z,3.93
2019-04-26T13:24:54.138Z,6.83
2019-04-26T13:28:20.173Z,4.37
2019-04-26T13:31:45.148Z,3.63
2019-04-26T13:34:54.166Z,3.37
2019-04-26T13:38:24.493Z,5.13
2019-04-26T13:42:01.481Z,4.80
2019-04-26T13:45:25.026Z,6.10
2019-04-26T13:49:04.207Z,4.57
2019-04-26T13:52:01.538Z,3.10
2019-04-26T13:55:25.396Z,6.30
2019-04-26T13:58:20.964Z,5.67
2019-04-26T14:01:06.903Z,5.07
2019-04-26T14:07:42.975Z,4.83
2019-04-26T14:11:05.840Z,5.50
2019-04-26T14:14:17.686Z,5.53
2019-04-26T14:17:32.632Z,6.97
2019-04-26T14:21:04.613Z,5.17
2019-04-26T14:27:50.050Z,4.97
2019-04-26T14:31:03.393Z,4.73
2019-04-26T14:34:41.944Z,3.47
2019-04-26T14:37:45.330Z,4.40
2019-04-26T14:41:13.356Z,7.40
2019-04-26T14:44:33.041Z,8.20
2019-04-26T14:47:46.681Z,5.17
2019-04-26T14:50:39.853Z,7.43
2019-04-26T14:53:51.193Z,5.40
2019-04-26T14:56:52.482Z,8.03
2019-04-26T15:00:16.847Z,5.90
2019-04-26T15:03:39.983Z,6.80
2019-04-26T15:06:51.929Z,5.47
2019-04-26T15:10:20.902Z,9.27
2019-04-26T15:13:44.016Z,7.00
2019-04-26T15:16:55.656Z,4.17
2019-04-26T15:20:04.990Z,9.47
2019-04-26T15:23:10.091Z,6.67
2019-04-26T15:30:04.164Z,5.07
2019-04-26T15:33:18.975Z,5.97
2019-04-26T15:36:37.115Z,5.70
2019-04-26T15:43:46.771Z,6.47
2019-04-26T15:47:03.241Z,5.50
2019-04-26T15:53:36.080Z,4.70
2019-04-26T15:56:23.238Z,7.20
2019-04-26T15:59:25.271Z,10.77
2019-04-26T16:02:27.546Z,9.67
2019-04-26T16:05:29.641Z,7.57
2019-04-26T16:08:42.911Z,9.07
2019-04-26T16:11:24.360Z,11.80
2019-04-26T16:14:44.345Z,10.13
2019-04-26T16:17:47.675Z,6.27
2019-04-26T16:24:34.506Z,10.80
2019-04-26T16:27:49.428Z,9.13
2019-04-26T16:30:53.194Z,5.57
2019-04-26T16:34:18.093Z,8.10
2019-04-26T16:48:04.557Z,8.73
2019-04-26T16:51:09.465Z,10.43
2019-04-26T16:54:07.464Z,8.30
2019-04-26T16:57:24.380Z,13.23
2019-04-26T17:00:50.327Z,8.80
2019-04-26T17:03:30.686Z,13.77
2019-04-26T17:07:06.674Z,9.93
2019-04-26T17:10:16.577Z,9.53
2019-04-26T17:13:23.932Z,9.67
2019-04-26T17:16:29.641Z,9.83
2019-04-26T17:19:37.582Z,9.50
2019-04-26T17:23:08.630Z,7.43
2019-04-26T17:26:20.203Z,13.20
2019-04-26T17:29:49.880Z,8.73
2019-04-26T17:33:00.427Z,11.03
2019-04-26T17:35:56.341Z,9.43
2019-04-26T17:42:29.392Z,8.83
2019-04-26T17:45:44.009Z,13.07
2019-04-26T17:52:06.757Z,6.10
2019-04-26T17:55:11.868Z,11.53
2019-04-26T17:58:12.313Z,8.07
2019-04-26T18:01:41.949Z,6.70
2019-04-26T18:04:58.080Z,7.93
2019-04-26T18:08:36.035Z,10.60
2019-04-26T18:11:36.457Z,5.43
2019-04-26T18:14:35.077Z,9.30
2019-04-26T18:17:48.190Z,8.93
2019-04-26T18:24:43.535Z,10.27
2019-04-26T18:31:10.041Z,7.17
2019-04-26T18:34:55.518Z,8.33
2019-04-26T18:38:19.258Z,7.60
2019-04-26T18:45:28.135Z,7.37
2019-04-26T18:48:19.780Z,9.17
2019-04-26T18:55:53.544Z,5.87
2019-04-26T19:02:43.344Z,4.47
2019-04-26T19:05:36.216Z,8.30
2019-04-26T19:08:47.670Z,7.67
2019-04-26T19:11:50.584Z,7.83
2019-04-26T19:15:26.523Z,10.70
2019-04-26T19:18:51.795Z,10.83
2019-04-26T19:29:22.508Z,11.17
2019-04-26T19:32:27.715Z,9.83
2019-04-26T19:35:47.424Z,7.27
2019-04-26T19:39:08.951Z,5.00
2019-04-26T19:42:32.458Z,9.63
2019-04-26T19:46:22.723Z,13.97
2019-04-26T19:49:37.383Z,7.27
2019-04-26T19:53:17.720Z,10.03
2019-04-26T19:56:56.656Z,11.77
2019-04-26T20:00:15.488Z,6.87
2019-04-26T20:03:47.357Z,9.00
2019-04-26T20:07:16.090Z,8.20
2019-04-26T20:10:40.207Z,5.37
2019-04-26T20:13:55.207Z,10.77
2019-04-26T20:17:19.925Z,10.50
2019-04-26T20:20:35.862Z,7.97
2019-04-26T20:27:27.649Z,8.47
2019-04-26T20:30:48.802Z,5.37
2019-04-26T20:34:10.989Z,7.07
2019-04-26T20:37:52.022Z,8.77
2019-04-26T20:40:57.102Z,7.60
2019-04-26T20:44:07.434Z,9.40
2019-04-26T20:47:18.646Z,9.77
2019-04-26T20:50:17.852Z,7.10
2019-04-26T20:53:40.034Z,6.67
2019-04-26T20:56:59.573Z,8.90
2019-04-26T21:03:45.989Z,6.63
2019-04-26T21:07:23.233Z,9.27
2019-04-26T21:10:45.620Z,10.03
2019-04-26T21:14:07.675Z,10.80
2019-04-26T21:17:23.267Z,8.77
2019-04-26T21:20:42.373Z,8.20
2019-04-26T21:23:49.685Z,8.27
2019-04-26T21:26:54.605Z,6.17
2019-04-26T21:30:07.509Z,9.03
2019-04-26T21:33:19.528Z,7.63
2019-04-26T21:36:44.110Z,10.93
2019-04-26T21:39:58.518Z,12.00
2019-04-26T21:43:08.525Z,7.67
2019-04-26T21:49:52.761Z,8.37
2019-04-26T21:52:58.577Z,7.33
2019-04-26T21:59:40.975Z,9.30
2019-04-26T22:02:37.555Z,7.00
2019-04-26T22:05:54.843Z,6.97
2019-04-26T22:08:47.355Z,9.37
2019-04-26T22:11:33.120Z,8.87
2019-04-26T22:14:50.684Z,13.03
2019-04-26T22:18:04.645Z,9.20
2019-04-26T22:21:06.088Z,10.83
2019-04-26T22:24:16.000Z,8.77
2019-04-26T22:27:30.348Z,7.67
2019-04-26T22:30:29.532Z,11.40
2019-04-26T22:33:27.394Z,8.93
2019-04-26T22:36:13.177Z,7.70
2019-04-26T22:39:08.927Z,7.13
2019-04-26T22:42:02.817Z,10.50
2019-04-26T22:45:03.224Z,6.23
2019-04-26T22:48:23.166Z,10.27
2019-04-26T22:51:20.181Z,11.30
2019-04-26T22:53:57.589Z,10.23
2019-04-26T22:56:56.155Z,8.93
2019-04-26T22:59:47.706Z,7.63
2019-04-26T23:02:46.536Z,10.90
2019-04-26T23:05:30.679Z,11.97
2019-04-26T23:08:13.613Z,13.07
2019-04-26T23:11:02.490Z,13.67
2019-04-26T23:14:04.457Z,12.97
2019-04-26T23:17:08.044Z,12.10
2019-04-26T23:20:18.971Z,13.00
2019-04-26T23:23:05.237Z,12.47
2019-04-26T23:25:46.853Z,12.77
2019-04-26T23:28:36.829Z,16.50
2019-04-26T23:31:28.303Z,15.73
2019-04-26T23:34:14.289Z,18.03
2019-04-26T23:36:57.800Z,15.73
2019-04-26T23:39:49.379Z,12.70
2019-04-26T23:42:30.339Z,13.23
2019-04-26T23:45:28.894Z,15.20
2019-04-26T23:48:13.227Z,12.50
2019-04-26T23:50:59.905Z,14.37
2019-04-26T23:53:42.937Z,11.43
2019-04-26T23:56:24.665Z,16.27
2019-04-26T23:58:59.509Z,13.33
